createdAt,value
2022-10-19T00:01:09.226Z,11.33
2022-10-19T00:03:37.372Z,11.31
2022-10-19T00:06:22.237Z,11.29
2022-10-19T00:08:52.689Z,11.25
2022-10-19T00:11:20.594Z,11.25
2022-10-19T00:13:48.298Z,11.15
2022-10-19T00:16:17.655Z,11.15
2022-10-19T00:18:45.667Z,11.29
2022-10-19T00:21:15.569Z,11.17
2022-10-19T00:23:43.669Z,11.13
2022-10-19T00:26:12.485Z,11.05
2022-10-19T00:28:40.710Z,11.08
2022-10-19T00:31:12.713Z,11.02
2022-10-19T00:33:40.718Z,11.00
2022-10-19T00:36:20.009Z,10.97
2022-10-19T00:38:48.025Z,10.93
2022-10-19T00:41:16.972Z,10.87
2022-10-19T00:44:13.798Z,10.92
2022-10-19T00:46:44.149Z,10.99
2022-10-19T00:49:23.561Z,11.05
2022-10-19T00:51:54.196Z,10.99
2022-10-19T00:54:22.212Z,11.09
2022-10-19T00:56:52.112Z,11.06
2022-10-19T00:59:21.547Z,10.89
2022-10-19T01:01:49.716Z,10.68
2022-10-19T01:04:18.622Z,10.91
2022-10-19T01:06:46.543Z,10.77
2022-10-19T01:09:14.291Z,10.74
2022-10-19T01:11:53.774Z,10.65
2022-10-19T01:14:36.505Z,10.63
2022-10-19T01:17:17.959Z,10.66
2022-10-19T01:20:10.170Z,10.63
2022-10-19T01:23:02.870Z,10.58
2022-10-19T01:25:49.689Z,10.67
2022-10-19T01:28:46.305Z,10.65
2022-10-19T01:31:39.218Z,10.62
2022-10-19T01:34:15.039Z,10.61
2022-10-19T01:36:52.139Z,10.59
2022-10-19T01:39:31.779Z,10.53
2022-10-19T01:42:08.657Z,10.54
2022-10-19T01:44:48.218Z,10.54
2022-10-19T01:47:19.950Z,10.42
2022-10-19T01:49:57.171Z,10.40
2022-10-19T01:52:25.943Z,10.40
2022-10-19T01:54:59.677Z,10.31
2022-10-19T01:57:33.965Z,10.22
2022-10-19T02:00:02.071Z,10.24
2022-10-19T02:02:43.498Z,10.21
2022-10-19T02:05:12.236Z,10.23
2022-10-19T02:07:41.654Z,10.20
2022-10-19T02:10:09.448Z,10.26
2022-10-19T02:12:37.995Z,10.25
2022-10-19T02:15:11.593Z,10.23
2022-10-19T02:17:46.506Z,10.26
2022-10-19T02:20:15.261Z,10.28
2022-10-19T02:22:43.713Z,10.24
2022-10-19T02:25:11.728Z,10.30
2022-10-19T02:27:40.821Z,10.37
2022-10-19T02:30:14.482Z,10.32
2022-10-19T02:32:43.778Z,10.50
2022-10-19T02:35:12.651Z,10.47
2022-10-19T02:37:40.661Z,10.46
2022-10-19T02:40:10.477Z,10.53
2022-10-19T02:42:52.619Z,10.65
2022-10-19T02:45:25.075Z,10.77
2022-10-19T02:48:00.095Z,10.72
2022-10-19T02:50:28.003Z,10.85
2022-10-19T02:52:58.624Z,11.13
2022-10-19T02:55:26.311Z,11.25
2022-10-19T02:57:53.956Z,11.27
2022-10-19T03:00:21.997Z,11.45
2022-10-19T03:02:49.549Z,11.42
2022-10-19T03:05:17.209Z,11.44
2022-10-19T03:07:45.105Z,11.35
2022-10-19T03:10:12.939Z,11.36
2022-10-19T03:12:40.518Z,11.26
2022-10-19T03:15:09.124Z,11.42
2022-10-19T03:17:37.192Z,11.42
2022-10-19T03:20:07.688Z,11.50
2022-10-19T03:22:35.773Z,11.60
2022-10-19T03:25:03.898Z,11.56
2022-10-19T03:27:31.688Z,11.69
2022-10-19T03:30:07.749Z,11.63
2022-10-19T03:32:35.447Z,11.64
2022-10-19T03:35:03.423Z,11.67
2022-10-19T03:37:33.308Z,11.65
2022-10-19T03:40:01.646Z,11.71
2022-10-19T03:42:29.955Z,11.64
2022-10-19T03:44:57.504Z,11.72
2022-10-19T03:47:25.126Z,11.96
2022-10-19T03:49:53.840Z,11.90
2022-10-19T03:52:21.482Z,11.93
2022-10-19T03:54:51.803Z,12.04
2022-10-19T03:57:19.749Z,11.95
2022-10-19T03:59:48.614Z,12.01
2022-10-19T04:02:16.120Z,12.08
2022-10-19T04:04:44.031Z,11.98
2022-10-19T04:07:11.646Z,12.15
2022-10-19T04:09:41.210Z,12.21
2022-10-19T04:12:09.444Z,12.25
2022-10-19T04:14:52.541Z,12.22
2022-10-19T04:17:25.405Z,12.11
2022-10-19T04:19:55.642Z,12.02
2022-10-19T04:22:23.191Z,12.06
2022-10-19T04:24:51.086Z,12.05
2022-10-19T04:27:18.757Z,12.09
2022-10-19T04:29:46.543Z,12.07
2022-10-19T04:32:14.420Z,12.18
2022-10-19T04:34:42.081Z,12.14
2022-10-19T04:37:09.742Z,11.90
2022-10-19T04:39:39.501Z,11.84
2022-10-19T04:42:07.143Z,11.68
2022-10-19T04:44:34.650Z,11.60
2022-10-19T04:47:02.545Z,11.61
2022-10-19T04:49:30.648Z,11.51
2022-10-19T04:51:58.290Z,11.27
2022-10-19T04:54:26.169Z,11.29
2022-10-19T04:56:53.808Z,11.17
2022-10-19T04:59:21.523Z,11.21
2022-10-19T05:01:49.403Z,11.13
2022-10-19T05:04:17.056Z,11.11
2022-10-19T05:06:44.675Z,11.06
2022-10-19T05:09:12.550Z,10.99
2022-10-19T05:11:40.290Z,10.81
2022-10-19T05:14:07.915Z,10.71
2022-10-19T05:16:35.871Z,10.69
2022-10-19T05:19:03.635Z,10.54
2022-10-19T05:21:31.303Z,10.50
2022-10-19T05:23:59.188Z,10.58
2022-10-19T05:26:27.859Z,10.58
2022-10-19T05:29:00.477Z,10.76
2022-10-19T05:31:31.125Z,10.80
2022-10-19T05:33:59.636Z,10.83
2022-10-19T05:36:35.351Z,10.76
2022-10-19T05:39:09.017Z,10.88
2022-10-19T05:41:36.646Z,10.82
2022-10-19T05:44:05.373Z,10.83
2022-10-19T05:46:33.640Z,10.85
2022-10-19T05:49:01.313Z,10.93
2022-10-19T05:51:29.844Z,10.88
2022-10-19T05:53:59.116Z,10.94
2022-10-19T05:56:29.031Z,11.04
2022-10-19T05:58:59.331Z,11.17
2022-10-19T06:01:28.576Z,11.22
2022-10-19T06:03:58.607Z,11.36
2022-10-19T06:06:26.998Z,11.42
2022-10-19T06:08:55.924Z,11.47
2022-10-19T06:11:29.636Z,11.51
2022-10-19T06:13:58.894Z,11.58
2022-10-19T06:16:27.328Z,11.68
2022-10-19T06:18:56.199Z,11.74
2022-10-19T06:21:25.553Z,11.88
2022-10-19T06:23:58.610Z,11.96
2022-10-19T06:26:27.275Z,12.01
2022-10-19T06:28:56.810Z,12.12
2022-10-19T06:31:24.411Z,12.13
2022-10-19T06:33:52.132Z,12.33
2022-10-19T06:36:22.626Z,12.34
2022-10-19T06:38:50.544Z,12.41
2022-10-19T06:41:18.258Z,12.51
2022-10-19T06:43:50.824Z,12.64
2022-10-19T06:46:19.391Z,12.67
2022-10-19T06:48:52.029Z,12.73
2022-10-19T06:51:19.726Z,12.83
2022-10-19T06:53:48.948Z,12.98
2022-10-19T06:56:19.470Z,13.10
2022-10-19T06:58:47.498Z,13.12
2022-10-19T07:01:15.287Z,13.14
2022-10-19T07:03:43.010Z,13.29
2022-10-19T07:06:12.765Z,13.32
2022-10-19T07:08:41.215Z,13.42
2022-10-19T07:11:12.673Z,13.50
2022-10-19T07:13:40.534Z,13.49
2022-10-19T07:16:11.171Z,13.61
2022-10-19T07:18:41.895Z,13.69
2022-10-19T07:21:11.999Z,13.77
2022-10-19T07:23:41.269Z,13.87
2022-10-19T07:26:15.238Z,13.87
2022-10-19T07:28:45.834Z,14.00
2022-10-19T07:31:15.491Z,14.08
2022-10-19T07:33:43.336Z,14.17
2022-10-19T07:36:11.298Z,14.20
2022-10-19T07:38:39.833Z,14.34
2022-10-19T07:41:15.962Z,14.47
2022-10-19T07:43:45.751Z,14.55
2022-10-19T07:46:19.078Z,14.72
2022-10-19T07:48:47.259Z,14.82
2022-10-19T07:51:16.268Z,14.89
2022-10-19T07:53:44.394Z,15.01
2022-10-19T07:56:14.626Z,15.08
2022-10-19T07:58:42.373Z,15.18
2022-10-19T08:01:12.866Z,15.37
2022-10-19T08:04:42.824Z,15.43
2022-10-19T08:06:28.830Z,15.46
2022-10-19T08:08:56.918Z,15.69
2022-10-19T08:11:30.148Z,15.74
2022-10-19T08:13:58.455Z,15.77
2022-10-19T08:16:32.801Z,15.89
2022-10-19T08:19:03.141Z,15.88
2022-10-19T08:21:30.994Z,15.87
2022-10-19T08:23:58.916Z,16.03
2022-10-19T08:26:31.403Z,16.16
2022-10-19T08:29:19.016Z,16.38
2022-10-19T08:31:48.245Z,16.60
2022-10-19T08:34:16.260Z,16.56
2022-10-19T08:36:43.940Z,16.67
2022-10-19T08:39:12.988Z,16.84
2022-10-19T08:44:25.648Z,17.26
2022-10-19T08:47:16.611Z,17.41
2022-10-19T08:49:48.883Z,17.49
2022-10-19T08:52:20.028Z,17.54
2022-10-19T08:55:16.486Z,17.48
2022-10-19T08:57:52.068Z,17.47
2022-10-19T09:00:54.429Z,17.49
2022-10-19T09:03:54.834Z,17.79
2022-10-19T09:06:27.329Z,17.76
2022-10-19T09:08:55.878Z,17.92
2022-10-19T09:11:27.768Z,17.96
2022-10-19T09:14:05.641Z,18.20
2022-10-19T09:16:34.162Z,18.58
2022-10-19T09:19:03.040Z,18.72
2022-10-19T09:21:52.050Z,18.66
2022-10-19T09:24:30.648Z,18.55
2022-10-19T09:27:00.836Z,19.02
2022-10-19T09:29:50.198Z,18.86
2022-10-19T09:32:24.631Z,18.78
2022-10-19T09:34:58.636Z,19.23
2022-10-19T09:37:26.937Z,19.21
2022-10-19T09:39:56.550Z,19.19
2022-10-19T09:42:31.735Z,19.15
2022-10-19T09:45:02.258Z,19.42
2022-10-19T09:47:38.585Z,19.46
2022-10-19T09:50:22.520Z,19.20
2022-10-19T09:53:03.761Z,19.42
2022-10-19T09:55:44.386Z,19.77
2022-10-19T09:58:15.152Z,19.91
2022-10-19T10:00:48.152Z,19.68
2022-10-19T10:03:24.170Z,20.12
2022-10-19T10:05:52.559Z,20.08
2022-10-19T10:08:23.168Z,20.00
2022-10-19T10:11:14.076Z,20.45
2022-10-19T10:13:48.054Z,20.57
2022-10-19T10:16:18.051Z,20.65
2022-10-19T10:19:04.140Z,20.86
2022-10-19T10:21:33.568Z,20.63
2022-10-19T10:24:06.774Z,20.49
2022-10-19T10:26:52.152Z,20.25
2022-10-19T10:29:22.711Z,20.74
2022-10-19T10:32:03.451Z,20.87
2022-10-19T10:34:45.897Z,20.98
2022-10-19T10:37:34.697Z,20.33
2022-10-19T10:40:05.351Z,19.76
2022-10-19T10:42:44.138Z,19.83
2022-10-19T10:45:26.682Z,20.50
2022-10-19T10:47:54.561Z,19.86
2022-10-19T10:50:27.219Z,19.77
2022-10-19T10:53:01.351Z,19.90
2022-10-19T10:55:31.967Z,19.83
2022-10-19T10:58:24.326Z,19.94
2022-10-19T11:00:56.201Z,19.64
2022-10-19T11:03:28.173Z,19.40
2022-10-19T11:05:58.185Z,19.21
2022-10-19T11:08:35.984Z,19.93
2022-10-19T11:11:20.898Z,20.43
2022-10-19T11:13:53.052Z,20.97
2022-10-19T11:16:26.248Z,20.40
2022-10-19T11:18:58.591Z,20.24
2022-10-19T11:21:32.118Z,20.33
2022-10-19T11:23:59.585Z,20.80
2022-10-19T11:26:40.135Z,20.33
2022-10-19T11:29:19.844Z,20.26
2022-10-19T11:31:49.797Z,20.00
2022-10-19T11:34:35.799Z,20.11
2022-10-19T11:37:20.846Z,19.76
2022-10-19T11:39:55.367Z,19.87
2022-10-19T11:42:42.336Z,19.70
2022-10-19T11:45:24.387Z,19.81
2022-10-19T11:47:52.170Z,19.62
2022-10-19T11:50:33.849Z,19.28
2022-10-19T11:53:07.859Z,19.20
2022-10-19T11:55:44.989Z,19.58
2022-10-19T11:59:02.321Z,19.83
2022-10-19T12:01:33.819Z,20.02
2022-10-19T12:04:04.460Z,20.07
2022-10-19T12:06:50.451Z,20.18
2022-10-19T12:09:33.119Z,19.91
2022-10-19T12:12:15.748Z,19.67
2022-10-19T12:14:46.970Z,19.64
2022-10-19T12:17:20.602Z,19.96
2022-10-19T12:19:56.506Z,19.97
2022-10-19T12:22:29.056Z,19.92
2022-10-19T12:25:00.199Z,19.92
2022-10-19T12:27:37.157Z,20.05
2022-10-19T12:30:18.800Z,20.11
2022-10-19T12:33:21.612Z,20.36
2022-10-19T12:36:19.633Z,20.39
2022-10-19T12:38:52.392Z,20.49
2022-10-19T12:41:49.487Z,20.48
2022-10-19T12:45:01.971Z,20.49
2022-10-19T12:47:30.590Z,20.58
2022-10-19T12:49:58.877Z,20.58
2022-10-19T12:52:46.645Z,20.39
2022-10-19T12:55:17.607Z,20.65
2022-10-19T12:57:47.213Z,20.25
2022-10-19T13:00:24.816Z,20.23
2022-10-19T13:03:13.311Z,20.50
2022-10-19T13:05:41.463Z,20.41
2022-10-19T13:08:12.132Z,20.42
2022-10-19T13:11:03.538Z,20.15
2022-10-19T13:14:00.755Z,20.14
2022-10-19T13:16:28.797Z,19.84
2022-10-19T13:18:59.350Z,20.09
2022-10-19T13:21:49.752Z,19.79
2022-10-19T13:24:26.153Z,19.91
2022-10-19T13:27:02.409Z,19.94
2022-10-19T13:29:37.060Z,19.81
2022-10-19T13:32:31.014Z,19.75
2022-10-19T13:35:23.774Z,19.83
2022-10-19T13:38:09.514Z,19.89
2022-10-19T13:40:48.189Z,19.68
2022-10-19T13:43:17.961Z,19.71
2022-10-19T13:45:59.378Z,19.81
2022-10-19T13:48:56.577Z,19.54
2022-10-19T13:51:43.255Z,19.72
2022-10-19T13:54:22.810Z,19.69
2022-10-19T13:57:16.556Z,19.28
2022-10-19T14:00:14.355Z,19.20
2022-10-19T14:03:00.863Z,19.17
2022-10-19T14:05:46.819Z,19.02
2022-10-19T14:08:15.518Z,18.77
2022-10-19T14:11:00.479Z,18.67
2022-10-19T14:13:29.899Z,18.58
2022-10-19T14:15:59.280Z,18.37
2022-10-19T14:18:31.289Z,18.36
2022-10-19T14:21:02.311Z,18.23
2022-10-19T14:23:33.597Z,18.00
2022-10-19T14:26:03.418Z,17.93
2022-10-19T14:28:31.927Z,17.78
2022-10-19T14:31:05.590Z,17.83
2022-10-19T14:33:41.124Z,17.66
2022-10-19T14:36:15.024Z,17.49
2022-10-19T14:38:47.138Z,17.39
2022-10-19T14:41:19.746Z,17.41
2022-10-19T14:43:47.842Z,17.28
2022-10-19T14:46:16.440Z,17.19
2022-10-19T14:48:48.987Z,17.29
2022-10-19T14:51:35.099Z,17.14
2022-10-19T14:54:22.822Z,16.98
2022-10-19T14:56:58.812Z,16.96
2022-10-19T14:59:37.270Z,17.01
2022-10-19T15:02:15.118Z,16.93
2022-10-19T15:04:43.198Z,16.78
2022-10-19T15:07:20.891Z,16.69
2022-10-19T15:09:56.778Z,16.54
2022-10-19T15:12:39.100Z,16.37
2022-10-19T15:15:09.508Z,16.37
2022-10-19T15:17:50.076Z,16.30
2022-10-19T15:20:36.367Z,16.21
2022-10-19T15:23:40.969Z,16.09
2022-10-19T15:26:21.646Z,16.02
2022-10-19T15:28:49.791Z,15.95
2022-10-19T15:31:24.775Z,15.84
2022-10-19T15:33:58.592Z,15.75
2022-10-19T15:36:27.868Z,15.75
2022-10-19T15:39:17.678Z,15.65
2022-10-19T15:41:51.213Z,15.41
2022-10-19T15:44:42.638Z,15.40
2022-10-19T15:47:13.231Z,15.32
2022-10-19T15:49:41.974Z,15.22
2022-10-19T15:52:16.885Z,15.34
2022-10-19T15:54:48.286Z,15.22
2022-10-19T15:57:30.769Z,15.15
2022-10-19T16:00:02.473Z,15.13
2022-10-19T16:02:31.697Z,15.15
2022-10-19T16:04:59.617Z,14.97
2022-10-19T16:07:30.442Z,15.12
2022-10-19T16:10:00.642Z,14.80
2022-10-19T16:12:29.086Z,14.63
2022-10-19T16:14:56.719Z,14.75
2022-10-19T16:17:24.374Z,14.73
2022-10-19T16:19:54.527Z,14.65
2022-10-19T16:22:22.426Z,14.46
2022-10-19T16:24:51.555Z,14.54
2022-10-19T16:27:19.679Z,14.41
2022-10-19T16:29:48.823Z,14.40
2022-10-19T16:32:16.703Z,14.36
2022-10-19T16:34:47.526Z,14.28
2022-10-19T16:37:15.268Z,14.27
2022-10-19T16:39:43.806Z,14.17
2022-10-19T16:42:11.770Z,14.14
2022-10-19T16:44:39.728Z,14.07
2022-10-19T16:47:07.607Z,14.03
2022-10-19T16:49:35.666Z,14.09
2022-10-19T16:52:03.540Z,13.95
2022-10-19T16:54:31.320Z,13.94
2022-10-19T16:56:59.365Z,13.80
2022-10-19T16:59:27.089Z,13.65
2022-10-19T17:02:12.432Z,13.72
2022-10-19T17:04:41.162Z,13.74
2022-10-19T17:07:09.062Z,13.53
2022-10-19T17:09:41.866Z,13.63
2022-10-19T17:12:10.624Z,13.54
2022-10-19T17:14:39.736Z,13.45
2022-10-19T17:17:08.223Z,13.44
2022-10-19T17:19:37.609Z,13.33
2022-10-19T17:22:05.256Z,13.37
2022-10-19T17:24:33.129Z,13.21
2022-10-19T17:27:02.110Z,13.16
2022-10-19T17:29:30.188Z,13.08
2022-10-19T17:31:58.614Z,12.94
2022-10-19T17:34:26.883Z,13.02
2022-10-19T17:36:54.941Z,12.98
2022-10-19T17:39:29.808Z,13.09
2022-10-19T17:41:59.023Z,12.89
2022-10-19T17:44:26.898Z,12.80
2022-10-19T17:46:54.997Z,12.78
2022-10-19T17:49:23.374Z,12.56
2022-10-19T17:51:52.538Z,12.41
2022-10-19T17:54:20.474Z,12.41
2022-10-19T17:56:49.176Z,12.45
2022-10-19T17:59:17.256Z,12.33
2022-10-19T18:01:46.255Z,12.17
2022-10-19T18:04:14.469Z,12.20
2022-10-19T18:06:42.103Z,12.13
2022-10-19T18:09:11.101Z,12.07
2022-10-19T18:11:44.047Z,12.01
2022-10-19T18:14:13.256Z,11.76
2022-10-19T18:16:46.024Z,11.80
2022-10-19T18:19:15.698Z,11.78
2022-10-19T18:21:46.147Z,11.72
2022-10-19T18:24:16.472Z,11.64
2022-10-19T18:26:44.801Z,11.69
2022-10-19T18:29:16.781Z,11.71
2022-10-19T18:31:45.229Z,11.76
2022-10-19T18:34:14.879Z,11.62
2022-10-19T18:36:42.612Z,11.56
2022-10-19T18:39:12.888Z,11.48
2022-10-19T18:41:41.082Z,11.48
2022-10-19T18:44:12.349Z,11.46
2022-10-19T18:46:42.552Z,11.52
2022-10-19T18:49:12.314Z,11.32
2022-10-19T18:51:40.584Z,11.30
2022-10-19T18:54:08.611Z,11.20
2022-10-19T18:56:36.691Z,11.18
2022-10-19T18:59:05.538Z,11.05
2022-10-19T19:01:33.539Z,11.10
2022-10-19T19:04:07.968Z,11.17
2022-10-19T19:06:39.722Z,11.17
2022-10-19T19:09:09.911Z,11.13
2022-10-19T19:11:39.320Z,10.98
2022-10-19T19:14:12.789Z,10.78
2022-10-19T19:16:42.109Z,10.83
2022-10-19T19:19:11.995Z,10.76
2022-10-19T19:21:42.161Z,10.69
2022-10-19T19:24:13.586Z,10.67
2022-10-19T19:26:44.961Z,10.73
2022-10-19T19:29:12.776Z,10.68
2022-10-19T19:31:40.627Z,10.67
2022-10-19T19:34:09.515Z,10.69
2022-10-19T19:36:38.040Z,10.63
2022-10-19T19:39:05.999Z,10.65
2022-10-19T19:41:34.790Z,10.75
2022-10-19T19:44:03.258Z,10.65
2022-10-19T19:46:31.859Z,10.72
2022-10-19T19:49:03.133Z,10.68
2022-10-19T19:51:32.386Z,10.53
2022-10-19T19:54:01.176Z,10.54
2022-10-19T19:56:29.394Z,10.35
2022-10-19T19:58:59.228Z,10.38
2022-10-19T20:01:27.510Z,10.36
2022-10-19T20:03:57.841Z,10.32
2022-10-19T20:06:26.214Z,10.24
2022-10-19T20:08:55.081Z,10.18
2022-10-19T20:11:24.606Z,10.13
2022-10-19T20:13:52.857Z,10.08
2022-10-19T20:16:26.627Z,10.07
2022-10-19T20:19:05.827Z,9.93
2022-10-19T20:21:33.730Z,9.98
2022-10-19T20:24:02.958Z,9.80
2022-10-19T20:26:31.145Z,9.91
2022-10-19T20:29:02.283Z,10.02
2022-10-19T20:31:31.096Z,9.82
2022-10-19T20:33:59.516Z,9.78
2022-10-19T20:36:28.200Z,9.77
2022-10-19T20:38:58.353Z,9.76
2022-10-19T20:41:29.194Z,9.62
2022-10-19T20:43:57.211Z,9.56
2022-10-19T20:46:28.276Z,9.54
2022-10-19T20:48:57.445Z,9.52
2022-10-19T20:51:32.062Z,9.52
2022-10-19T20:54:01.927Z,9.53
2022-10-19T20:56:34.488Z,9.44
2022-10-19T20:59:04.431Z,9.50
2022-10-19T21:01:33.798Z,9.69
2022-10-19T21:04:03.337Z,9.61
2022-10-19T21:06:32.412Z,9.59
2022-10-19T21:09:01.458Z,9.59
2022-10-19T21:11:32.827Z,9.59
2022-10-19T21:14:11.569Z,9.49
2022-10-19T21:16:39.268Z,9.43
2022-10-19T21:19:11.001Z,9.37
2022-10-19T21:21:39.635Z,9.37
2022-10-19T21:24:14.414Z,9.28
2022-10-19T21:26:42.547Z,9.28
2022-10-19T21:29:12.451Z,9.15
2022-10-19T21:31:44.112Z,9.12
2022-10-19T21:34:19.635Z,9.14
2022-10-19T21:36:47.405Z,9.12
2022-10-19T21:39:16.012Z,9.03
2022-10-19T21:41:43.984Z,9.05
2022-10-19T21:44:11.632Z,9.04
2022-10-19T21:46:39.503Z,9.03
2022-10-19T21:49:07.110Z,9.04
2022-10-19T21:51:37.879Z,8.99
2022-10-19T21:54:07.245Z,8.95
2022-10-19T21:56:34.927Z,8.98
2022-10-19T21:59:03.030Z,8.87
2022-10-19T22:01:31.310Z,8.85
2022-10-19T22:04:01.366Z,8.86
2022-10-19T22:06:30.896Z,8.78
2022-10-19T22:08:58.789Z,8.77
2022-10-19T22:11:27.220Z,8.80
2022-10-19T22:13:59.710Z,8.79
2022-10-19T22:16:29.077Z,8.77
2022-10-19T22:18:56.862Z,8.72
2022-10-19T22:21:29.357Z,8.83
2022-10-19T22:23:59.714Z,8.69
2022-10-19T22:26:29.871Z,8.69
2022-10-19T22:28:59.108Z,8.72
2022-10-19T22:31:28.106Z,8.69
2022-10-19T22:33:55.931Z,8.80
2022-10-19T22:36:23.835Z,8.82
2022-10-19T22:38:51.543Z,8.75
2022-10-19T22:41:19.161Z,8.72
2022-10-19T22:43:47.040Z,8.67
2022-10-19T22:46:14.678Z,8.72
2022-10-19T22:48:43.727Z,8.71
2022-10-19T22:51:11.667Z,8.69
2022-10-19T22:53:39.289Z,8.64
2022-10-19T22:56:07.499Z,8.68
2022-10-19T22:58:35.433Z,8.75
2022-10-19T23:01:08.947Z,8.66
2022-10-19T23:03:37.184Z,8.62
2022-10-19T23:06:05.167Z,8.67
2022-10-19T23:08:32.729Z,8.64
2022-10-19T23:11:00.779Z,8.55
2022-10-19T23:13:28.487Z,8.53
2022-10-19T23:15:56.185Z,8.55
2022-10-19T23:18:24.329Z,8.53
2022-10-19T23:20:55.587Z,8.55
2022-10-19T23:23:23.603Z,8.54
2022-10-19T23:26:02.494Z,8.49
2022-10-19T23:28:31.959Z,8.61
2022-10-19T23:31:04.825Z,8.51
2022-10-19T23:33:33.020Z,8.65
2022-10-19T23:36:04.955Z,8.69
2022-10-19T23:38:32.750Z,8.62
2022-10-19T23:41:00.684Z,8.55
2022-10-19T23:43:29.022Z,8.58
2022-10-19T23:45:56.781Z,8.56
2022-10-19T23:48:24.999Z,8.49
2022-10-19T23:51:00.584Z,8.47
2022-10-19T23:53:29.544Z,8.56
2022-10-19T23:56:09.395Z,8.52
2022-10-19T23:58:37.007Z,8.61
